Time;durP1;ratioP1;P1;durP2;ratioP2;P2;SDS_P1;SDS_P2;PMS_P1;PMS_P2;Temp;Humidity;BMP_temperature;BMP_pressure;BME280_temperature;BME280_humidity;BME280_pressure;Samples;Min_cycle;Max_cycle;Signal;HPM_P1;HPM_P2
2022/04/08 00:02:15;;;;;;;9.90;0.95;;;5.70;99.90;;;;;;5033741;28;20685;-75
2022/04/08 00:04:41;;;;;;;13.27;1.35;;;5.70;99.90;;;;;;5034372;28;20037;-75
2022/04/08 00:07:06;;;;;;;8.10;1.20;;;5.80;99.90;;;;;;5029606;28;20126;-75
2022/04/08 00:09:32;;;;;;;4.50;0.93;;;5.80;99.90;;;;;;5035981;28;20079;-75
2022/04/08 00:11:57;;;;;;;7.68;0.98;;;5.80;99.90;;;;;;5029131;28;20048;-75
2022/04/08 00:14:24;;;;;;;7.43;1.20;;;5.80;99.90;;;;;;5030230;28;20057;-75
2022/04/08 00:16:50;;;;;;;7.10;1.00;;;5.90;99.90;;;;;;5028404;28;20575;-74
2022/04/08 00:19:15;;;;;;;5.82;0.90;;;5.80;99.90;;;;;;5038115;28;20199;-74
2022/04/08 00:21:42;;;;;;;7.18;0.88;;;5.80;99.90;;;;;;5035673;28;20041;-75
2022/04/08 00:24:08;;;;;;;5.50;0.50;;;5.80;99.90;;;;;;5034227;28;20142;-75
2022/04/08 00:26:34;;;;;;;5.68;0.82;;;5.70;99.90;;;;;;5035933;28;20048;-75
2022/04/08 00:29:00;;;;;;;3.88;0.70;;;5.70;99.90;;;;;;5036243;28;20084;-75
2022/04/08 00:31:26;;;;;;;3.53;0.50;;;5.60;99.90;;;;;;5029910;28;20042;-75
2022/04/08 00:33:52;;;;;;;4.85;0.55;;;5.60;99.90;;;;;;5033547;28;20056;-75
2022/04/08 00:36:17;;;;;;;3.45;0.55;;;5.50;99.90;;;;;;5028318;28;20053;-74
2022/04/08 00:38:43;;;;;;;4.38;1.17;;;6.20;99.90;;;;;;5032602;28;20045;-75
2022/04/08 00:41:08;;;;;;;4.15;0.60;;;5.50;99.90;;;;;;5031872;28;20694;-75
2022/04/08 00:43:38;;;;;;;3.33;0.60;;;5.50;99.90;;;;;;5033634;28;20041;-75
2022/04/08 00:46:11;;;;;;;1.50;0.30;;;5.50;99.90;;;;;;5027345;28;20049;-75
2022/04/08 00:48:38;;;;;;;4.90;0.65;;;5.40;99.90;;;;;;5029525;28;20094;-75
2022/04/08 00:51:08;;;;;;;3.03;0.60;;;5.30;99.90;;;;;;5026969;28;20065;-75
2022/04/08 00:53:38;;;;;;;2.67;0.52;;;5.30;99.90;;;;;;5025290;28;20791;-75
2022/04/08 00:56:04;;;;;;;3.92;0.60;;;5.20;99.90;;;;;;5029624;28;20080;-75
2022/04/08 00:58:32;;;;;;;6.00;0.70;;;5.20;99.90;;;;;;5036422;28;20088;-75
2022/04/08 01:00:57;;;;;;;4.18;0.52;;;5.10;99.90;;;;;;5041767;28;20060;-75
2022/04/08 01:03:23;;;;;;;4.38;0.98;;;5.50;99.90;;;;;;5028944;28;20061;-75
2022/04/08 01:05:49;;;;;;;7.55;0.70;;;5.10;99.90;;;;;;5031991;28;20055;-75
2022/04/08 01:08:17;;;;;;;5.60;0.57;;;5.00;99.90;;;;;;5027619;28;20087;-75
2022/04/08 01:10:44;;;;;;;8.55;0.68;;;5.00;99.90;;;;;;5033203;28;20362;-75
2022/04/08 01:13:10;;;;;;;8.23;0.82;;;5.00;99.90;;;;;;5025878;28;20044;-75
2022/04/08 01:15:35;;;;;;;4.05;0.70;;;5.00;99.90;;;;;;5033734;28;20260;-75
2022/04/08 01:18:05;;;;;;;6.82;0.80;;;4.90;99.90;;;;;;5033088;28;20068;-75
2022/04/08 01:20:32;;;;;;;7.47;1.20;;;4.90;99.90;;;;;;5029252;28;20053;-75
2022/04/08 01:22:58;;;;;;;8.00;1.15;;;4.90;99.90;;;;;;5030298;28;20048;-75
2022/04/08 01:25:23;;;;;;;5.50;0.73;;;5.00;99.90;;;;;;5032062;28;20634;-75
2022/04/08 01:27:50;;;;;;;5.93;0.65;;;4.80;99.90;;;;;;5035006;28;20052;-74
2022/04/08 01:30:16;;;;;;;6.03;0.88;;;4.70;99.90;;;;;;5023576;28;20048;-75
2022/04/08 01:32:42;;;;;;;4.65;0.88;;;4.70;99.90;;;;;;5008421;28;20119;-75
2022/04/08 01:35:08;;;;;;;7.30;0.88;;;4.60;99.90;;;;;;5024912;28;20734;-75
2022/04/08 01:37:34;;;;;;;9.07;0.82;;;4.60;99.90;;;;;;5028085;28;20041;-75
2022/04/08 01:39:59;;;;;;;3.17;0.50;;;4.50;99.90;;;;;;5023376;28;21268;-74
2022/04/08 01:42:25;;;;;;;6.45;0.90;;;4.50;99.90;;;;;;5031339;28;20041;-75
2022/04/08 01:44:52;;;;;;;4.53;0.63;;;4.40;99.90;;;;;;5033499;28;20074;-75
2022/04/08 01:47:19;;;;;;;6.55;1.20;;;4.40;99.90;;;;;;5026531;28;20045;-75
2022/04/08 01:49:44;;;;;;;3.63;0.90;;;4.40;99.90;;;;;;5028597;28;20106;-75
2022/04/08 01:52:10;;;;;;;3.80;0.60;;;4.40;99.90;;;;;;5035630;28;20045;-75
2022/04/08 01:54:36;;;;;;;8.98;0.90;;;4.40;99.90;;;;;;5006381;28;20576;-75
2022/04/08 01:57:03;;;;;;;7.00;0.80;;;4.40;99.90;;;;;;5035156;28;20053;-75
2022/04/08 01:59:28;;;;;;;6.85;0.90;;;4.40;99.90;;;;;;5030526;28;20055;-75
2022/04/08 02:01:54;;;;;;;5.47;1.20;;;4.40;99.90;;;;;;5027674;28;20041;-75
2022/04/08 02:04:20;;;;;;;10.80;1.30;;;4.40;99.90;;;;;;5032691;28;20140;-75
2022/04/08 02:06:45;;;;;;;6.13;0.80;;;4.40;99.90;;;;;;5030450;28;20068;-75
2022/04/08 02:09:14;;;;;;;10.85;0.95;;;4.40;99.90;;;;;;5031093;28;20153;-75
2022/04/08 02:11:40;;;;;;;4.43;0.88;;;4.40;99.90;;;;;;5029956;28;20045;-74
2022/04/08 02:14:05;;;;;;;6.95;0.88;;;4.30;99.90;;;;;;5032245;28;20084;-75
2022/04/08 02:16:31;;;;;;;6.53;1.25;;;4.30;99.90;;;;;;5039562;28;20052;-75
2022/04/08 02:18:58;;;;;;;12.52;1.65;;;4.30;99.90;;;;;;5019803;28;20049;-75
2022/04/08 02:21:24;;;;;;;4.85;0.80;;;4.30;99.90;;;;;;5036003;28;20075;-75
2022/04/08 02:23:51;;;;;;;6.20;1.00;;;4.30;99.90;;;;;;5032566;28;20044;-75
2022/04/08 02:26:17;;;;;;;8.10;1.08;;;4.20;99.90;;;;;;5028839;28;20405;-75
2022/04/08 02:28:44;;;;;;;8.02;1.17;;;4.20;99.90;;;;;;5030824;28;20044;-75
2022/04/08 02:31:10;;;;;;;4.65;1.60;;;4.50;99.90;;;;;;5034630;28;20049;-75
2022/04/08 02:33:36;;;;;;;9.55;1.33;;;4.20;99.90;;;;;;5030909;28;20052;-75
2022/04/08 02:36:02;;;;;;;5.43;1.13;;;4.20;99.90;;;;;;5031259;28;20056;-75
2022/04/08 02:38:28;;;;;;;7.10;1.38;;;4.20;99.90;;;;;;5026938;28;20076;-74
2022/04/08 02:40:54;;;;;;;3.53;0.77;;;4.30;99.90;;;;;;5026072;28;20148;-75
2022/04/08 02:43:19;;;;;;;2.83;0.70;;;4.40;99.90;;;;;;5033458;28;20143;-74
2022/04/08 02:45:46;;;;;;;5.80;1.40;;;4.80;99.90;;;;;;5035839;28;20099;-74
2022/04/08 02:48:14;;;;;;;5.13;0.82;;;4.30;99.90;;;;;;5031935;28;20049;-75
2022/04/08 02:50:41;;;;;;;6.80;1.10;;;4.20;99.90;;;;;;5028590;28;20043;-75
2022/04/08 02:53:07;;;;;;;11.63;0.90;;;4.20;99.90;;;;;;5045256;28;20064;-75
2022/04/08 02:55:35;;;;;;;10.23;1.38;;;4.10;99.90;;;;;;5024650;28;20159;-75
2022/04/08 02:58:03;;;;;;;9.90;1.10;;;4.00;99.90;;;;;;5037106;28;20396;-75
2022/04/08 03:00:29;;;;;;;5.13;1.00;;;4.00;99.90;;;;;;5034554;28;20049;-75
2022/04/08 03:02:55;;;;;;;4.60;0.77;;;4.00;99.90;;;;;;5031851;28;20042;-75
2022/04/08 03:05:21;;;;;;;11.45;1.00;;;4.00;99.90;;;;;;5017148;28;20049;-75
2022/04/08 03:07:50;;;;;;;6.60;1.27;;;4.00;99.90;;;;;;5021752;28;20221;-75
2022/04/08 03:10:16;;;;;;;5.60;0.90;;;4.00;99.90;;;;;;5032964;28;20056;-75
2022/04/08 03:12:41;;;;;;;5.30;0.90;;;3.90;99.90;;;;;;5021118;28;20052;-74
2022/04/08 03:15:08;;;;;;;7.00;0.90;;;3.90;99.90;;;;;;5026487;28;20794;-74
2022/04/08 03:17:36;;;;;;;6.80;1.25;;;3.90;99.90;;;;;;5024859;28;20067;-75
2022/04/08 03:20:02;;;;;;;18.45;2.13;;;3.80;99.90;;;;;;5038048;28;20045;-74
2022/04/08 03:22:27;;;;;;;9.68;1.10;;;3.80;99.90;;;;;;5039274;28;20092;-74
2022/04/08 03:24:54;;;;;;;8.68;1.27;;;3.80;99.90;;;;;;5024475;28;20702;-74
2022/04/08 03:27:22;;;;;;;8.98;1.17;;;3.80;99.90;;;;;;5035907;28;20122;-74
2022/04/08 03:29:51;;;;;;;9.40;1.90;;;3.80;99.90;;;;;;5029087;28;20370;-75
2022/04/08 03:32:16;;;;;;;8.52;0.88;;;3.70;99.90;;;;;;5026484;28;20767;-75
2022/04/08 03:34:42;;;;;;;8.27;1.80;;;3.70;99.90;;;;;;5028617;28;20057;-75
2022/04/08 03:37:08;;;;;;;4.95;1.13;;;3.70;99.90;;;;;;5024463;28;20060;-75
2022/04/08 03:39:34;;;;;;;5.57;1.15;;;3.70;99.90;;;;;;5035131;28;20781;-75
2022/04/08 03:42:03;;;;;;;7.05;0.80;;;3.70;99.90;;;;;;5023425;28;20187;-75
2022/04/08 03:44:29;;;;;;;7.82;1.27;;;3.70;99.90;;;;;;5031479;28;20098;-75
2022/04/08 03:46:55;;;;;;;10.38;1.10;;;3.70;99.90;;;;;;5027352;28;20058;-75
2022/04/08 03:49:21;;;;;;;11.07;1.88;;;3.70;99.90;;;;;;5027654;28;20052;-75
2022/04/08 03:51:47;;;;;;;13.80;3.60;;;3.60;99.90;;;;;;5033657;28;20041;-75
2022/04/08 03:54:14;;;;;;;10.57;1.60;;;3.60;99.90;;;;;;5025395;28;20875;-75
2022/04/08 03:56:43;;;;;;;9.88;1.77;;;3.50;99.90;;;;;;5027567;28;20060;-74
2022/04/08 03:59:09;;;;;;;8.63;1.20;;;3.40;99.90;;;;;;5030267;28;20052;-75
2022/04/08 04:01:35;;;;;;;8.75;1.67;;;3.40;99.90;;;;;;5025094;28;20053;-75
2022/04/08 04:04:02;;;;;;;8.20;1.30;;;3.40;99.90;;;;;;5023581;28;20111;-75
2022/04/08 04:06:27;;;;;;;12.73;1.63;;;3.40;99.90;;;;;;5030079;28;20060;-75
2022/04/08 04:08:56;;;;;;;12.88;2.33;;;3.40;99.90;;;;;;5030798;28;20041;-74
2022/04/08 04:11:21;;;;;;;6.30;1.45;;;3.90;99.90;;;;;;5028267;28;20048;-74
2022/04/08 04:13:52;;;;;;;6.95;0.95;;;3.80;99.90;;;;;;5034497;28;20867;-75
2022/04/08 04:16:17;;;;;;;11.00;2.20;;;4.10;99.90;;;;;;5029901;28;20053;-74
2022/04/08 04:18:43;;;;;;;10.77;1.20;;;3.90;99.90;;;;;;5024420;28;20781;-75
2022/04/08 04:21:09;;;;;;;9.00;1.20;;;3.90;99.90;;;;;;5029791;28;20041;-75
2022/04/08 04:23:35;;;;;;;10.65;1.38;;;4.00;99.90;;;;;;5025736;28;20051;-74
2022/04/08 04:26:02;;;;;;;7.65;1.42;;;4.00;99.90;;;;;;5024373;28;20060;-75
2022/04/08 04:28:33;;;;;;;4.85;1.08;;;3.90;99.90;;;;;;5029852;28;20793;-75
2022/04/08 04:30:59;;;;;;;7.28;1.02;;;3.90;99.90;;;;;;5028324;28;20045;-75
2022/04/08 04:33:26;;;;;;;5.57;1.13;;;3.80;99.90;;;;;;5036543;28;20119;-75
2022/04/08 04:35:51;;;;;;;4.50;0.95;;;3.80;99.90;;;;;;5037059;28;20120;-74
2022/04/08 04:38:17;;;;;;;4.85;0.98;;;3.70;99.90;;;;;;5032186;28;20056;-75
2022/04/08 04:40:43;;;;;;;6.47;0.90;;;3.70;99.90;;;;;;5039577;28;20126;-75
2022/04/08 04:43:08;;;;;;;5.53;1.40;;;3.60;99.90;;;;;;5032500;28;20689;-75
2022/04/08 04:45:38;;;;;;;4.57;0.80;;;3.60;99.90;;;;;;5025833;28;20890;-72
2022/04/08 04:48:08;;;;;;;2.80;0.90;;;3.60;99.90;;;;;;5031211;28;20045;-75
2022/04/08 04:50:37;;;;;;;4.03;1.10;;;3.50;99.90;;;;;;5034150;28;20099;-75
2022/04/08 04:53:04;;;;;;;5.00;1.00;;;3.50;99.90;;;;;;5045439;28;20187;-75
2022/04/08 04:55:33;;;;;;;5.53;0.75;;;3.40;99.90;;;;;;5038629;28;20061;-74
2022/04/08 04:57:59;;;;;;;4.45;0.88;;;3.40;99.90;;;;;;5027578;28;20041;-75
2022/04/08 05:00:24;;;;;;;2.30;0.80;;;3.40;99.90;;;;;;5033437;28;20416;-74
2022/04/08 05:02:50;;;;;;;5.10;1.15;;;3.40;99.90;;;;;;5030541;28;20048;-75
2022/04/08 05:05:20;;;;;;;4.05;0.82;;;3.40;99.90;;;;;;5030811;28;20052;-75
2022/04/08 05:07:46;;;;;;;3.72;1.10;;;3.40;99.90;;;;;;5031782;28;20103;-75
2022/04/08 05:10:12;;;;;;;7.65;1.05;;;3.40;99.90;;;;;;5029584;28;20929;-75
2022/04/08 05:12:37;;;;;;;3.33;1.02;;;3.30;99.90;;;;;;5028546;28;20037;-75
2022/04/08 05:15:09;;;;;;;7.57;1.33;;;3.30;99.90;;;;;;5028582;28;20055;-75
2022/04/08 05:17:39;;;;;;;4.28;1.00;;;3.30;99.90;;;;;;5035175;28;20072;-75
2022/04/08 05:20:06;;;;;;;5.70;1.02;;;3.20;99.90;;;;;;5031008;28;20135;-75
2022/04/08 05:22:36;;;;;;;5.85;1.10;;;3.20;99.90;;;;;;5032714;28;20059;-75
2022/04/08 05:25:02;;;;;;;3.25;0.93;;;3.20;99.90;;;;;;5031741;28;20049;-75
2022/04/08 05:27:39;;;;;;;3.45;0.90;;;3.20;99.90;;;;;;5035244;28;20056;-75
2022/04/08 05:30:13;;;;;;;3.05;0.90;;;3.20;99.90;;;;;;5031516;28;20079;-74
2022/04/08 05:32:42;;;;;;;3.83;0.73;;;3.20;99.90;;;;;;5026123;28;20061;-74
2022/04/08 05:35:08;;;;;;;2.83;0.80;;;3.20;99.90;;;;;;5034043;28;20037;-75
2022/04/08 05:37:44;;;;;;;3.25;0.90;;;3.30;99.90;;;;;;5024003;28;20581;-74
2022/04/08 05:40:13;;;;;;;4.85;1.55;;;3.30;99.90;;;;;;5027835;28;20057;-75
2022/04/08 05:42:42;;;;;;;2.63;0.90;;;3.40;99.90;;;;;;5026364;28;20041;-75
2022/04/08 05:45:09;;;;;;;10.07;1.23;;;3.50;99.90;;;;;;5024467;28;20783;-75
2022/04/08 05:47:35;;;;;;;5.10;1.02;;;3.60;99.90;;;;;;5028963;28;20041;-75
2022/04/08 05:50:01;;;;;;;3.05;0.95;;;3.70;99.90;;;;;;5034974;28;20057;-75
2022/04/08 05:52:27;;;;;;;3.95;0.93;;;3.70;99.90;;;;;;5023384;28;20056;-75
2022/04/08 05:54:53;;;;;;;5.53;1.75;;;3.70;99.90;;;;;;5032186;28;20513;-75
2022/04/08 05:57:22;;;;;;;2.78;1.25;;;3.80;99.90;;;;;;5034367;28;20103;-75
2022/04/08 05:59:48;;;;;;;3.13;0.77;;;3.80;99.90;;;;;;5033964;28;20502;-75
2022/04/08 06:02:14;;;;;;;6.93;1.25;;;3.80;99.90;;;;;;5031554;28;20048;-78
2022/04/08 06:04:40;;;;;;;11.00;2.30;;;3.80;99.90;;;;;;5028893;28;20164;-77
2022/04/08 06:07:06;;;;;;;3.92;1.00;;;3.80;99.90;;;;;;5027556;28;20126;-77
2022/04/08 06:09:32;;;;;;;6.22;1.10;;;3.80;99.90;;;;;;5027063;28;20052;-78
2022/04/08 06:11:59;;;;;;;2.35;1.00;;;3.80;99.90;;;;;;5024540;28;20072;-77
2022/04/08 06:14:26;;;;;;;7.20;1.73;;;3.80;99.90;;;;;;5025977;28;20636;-76
2022/04/08 06:16:55;;;;;;;6.20;1.15;;;3.80;99.90;;;;;;5029060;28;20047;-77
2022/04/08 06:19:20;;;;;;;5.53;1.27;;;3.80;99.90;;;;;;5024125;28;20044;-77
2022/04/08 06:21:46;;;;;;;5.25;1.20;;;3.80;99.90;;;;;;5042192;28;20123;-77
2022/04/08 06:24:11;;;;;;;8.82;1.40;;;3.90;99.90;;;;;;5019178;28;20065;-77
2022/04/08 06:26:38;;;;;;;8.07;1.85;;;3.90;99.90;;;;;;5022610;28;20061;-78
2022/04/08 06:29:05;;;;;;;5.50;1.40;;;3.90;99.90;;;;;;5040511;28;20385;-77
2022/04/08 06:31:33;;;;;;;5.82;1.60;;;4.00;99.90;;;;;;5025419;28;20154;-78
2022/04/08 06:34:01;;;;;;;4.50;1.45;;;4.10;99.90;;;;;;5037348;28;20152;-78
2022/04/08 06:36:28;;;;;;;4.63;1.25;;;4.10;99.90;;;;;;5034070;28;20782;-88
2022/04/08 06:38:54;;;;;;;3.47;1.20;;;4.20;99.90;;;;;;5044072;28;20098;-87
2022/04/08 06:41:19;;;;;;;3.13;0.95;;;4.20;99.90;;;;;;5041868;28;20053;-87
2022/04/08 06:43:45;;;;;;;4.38;1.10;;;4.20;99.90;;;;;;5038519;28;20045;-91
2022/04/08 06:46:11;;;;;;;5.85;1.30;;;4.30;99.90;;;;;;5038919;28;20060;-87
2022/04/08 06:48:36;;;;;;;3.00;1.30;;;4.40;99.90;;;;;;5024359;28;20100;-86
2022/04/08 06:51:04;;;;;;;3.30;1.10;;;4.40;99.90;;;;;;5035602;28;20544;-84
2022/04/08 06:53:33;;;;;;;5.45;1.50;;;4.50;99.90;;;;;;5026940;28;20096;-84
2022/04/08 06:56:01;;;;;;;5.22;1.40;;;4.60;99.90;;;;;;5031604;28;20135;-84
2022/04/08 06:58:27;;;;;;;6.43;1.40;;;4.60;99.90;;;;;;5032688;28;20468;-83
2022/04/08 07:00:53;;;;;;;6.97;1.58;;;4.60;99.90;;;;;;5023488;28;20041;-84
2022/04/08 07:03:19;;;;;;;8.70;1.33;;;5.10;99.90;;;;;;5055984;28;20048;-82
2022/04/08 07:05:45;;;;;;;5.43;1.40;;;4.70;99.90;;;;;;5030716;28;20041;-82
2022/04/08 07:08:10;;;;;;;4.60;1.30;;;4.70;99.90;;;;;;5034352;28;20874;-82
2022/04/08 07:10:38;;;;;;;3.83;1.38;;;4.80;99.90;;;;;;5032061;28;20136;-81
2022/04/08 07:13:04;;;;;;;6.05;1.38;;;4.80;99.90;;;;;;5027953;28;20045;-82
2022/04/08 07:15:30;;;;;;;7.05;1.30;;;4.90;99.90;;;;;;5038278;28;20049;-82
2022/04/08 07:17:56;;;;;;;6.50;1.27;;;4.90;99.90;;;;;;5020876;28;20123;-82
2022/04/08 07:20:22;;;;;;;7.05;1.63;;;5.00;99.90;;;;;;5028009;28;20118;-81
2022/04/08 07:22:48;;;;;;;3.13;1.30;;;5.00;99.90;;;;;;5026425;28;20048;-81
2022/04/08 07:25:15;;;;;;;5.70;1.42;;;5.10;99.90;;;;;;5025783;28;20064;-81
2022/04/08 07:27:46;;;;;;;4.75;1.35;;;5.10;99.90;;;;;;5032036;28;20166;-81
2022/04/08 07:30:13;;;;;;;8.85;1.70;;;5.30;99.90;;;;;;5028273;28;20055;-81
2022/04/08 07:32:39;;;;;;;5.53;1.13;;;5.50;99.90;;;;;;5031093;28;20126;-82
2022/04/08 07:35:05;;;;;;;6.50;1.15;;;5.60;99.90;;;;;;5033964;28;20128;-86
2022/04/08 07:37:32;;;;;;;4.40;1.05;;;5.70;99.90;;;;;;5029698;28;20448;-81
2022/04/08 07:39:58;;;;;;;5.28;1.17;;;5.70;99.90;;;;;;5022644;28;20045;-81
2022/04/08 07:42:24;;;;;;;5.68;1.30;;;5.70;99.90;;;;;;5021123;28;20143;-81
2022/04/08 07:44:50;;;;;;;4.95;1.15;;;5.70;99.90;;;;;;5028261;28;20579;-81
2022/04/08 07:47:18;;;;;;;6.15;0.95;;;5.70;99.90;;;;;;5029918;28;20080;-81
2022/04/08 07:49:44;;;;;;;3.17;1.00;;;5.70;99.90;;;;;;5027082;28;20137;-81
2022/04/08 07:52:09;;;;;;;4.82;1.00;;;5.70;99.90;;;;;;5034296;28;20665;-81
2022/04/08 07:54:35;;;;;;;5.10;0.80;;;5.70;99.90;;;;;;5033992;28;20049;-80
2022/04/08 07:57:00;;;;;;;2.95;1.00;;;5.20;99.90;;;;;;5033403;28;20044;-80
2022/04/08 07:59:26;;;;;;;5.90;0.98;;;5.80;99.90;;;;;;5032496;28;20088;-81
2022/04/08 08:01:52;;;;;;;5.90;1.38;;;6.00;99.90;;;;;;5027230;28;20126;-81
2022/04/08 08:04:17;;;;;;;4.47;1.08;;;6.20;99.90;;;;;;5023684;28;20465;-81
2022/04/08 08:06:43;;;;;;;5.63;0.90;;;6.30;99.90;;;;;;5040445;28;20130;-81
2022/04/08 08:09:08;;;;;;;4.88;1.20;;;6.30;99.90;;;;;;5032393;28;20049;-81
2022/04/08 08:11:34;;;;;;;4.30;1.15;;;6.50;99.90;;;;;;5033686;28;20037;-81
2022/04/08 08:13:59;;;;;;;3.95;0.80;;;7.00;99.90;;;;;;5036029;28;20824;-81
2022/04/08 08:16:25;;;;;;;7.25;1.20;;;6.60;99.90;;;;;;5031047;28;20045;-82
2022/04/08 08:18:56;;;;;;;6.03;1.17;;;6.70;99.90;;;;;;5036748;28;20076;-81
2022/04/08 08:21:23;;;;;;;4.22;1.17;;;6.80;99.90;;;;;;5036694;28;20081;-81
2022/04/08 08:23:50;;;;;;;6.05;1.42;;;6.80;99.90;;;;;;5033367;28;20791;-81
2022/04/08 08:26:16;;;;;;;7.07;1.35;;;6.80;99.90;;;;;;5034927;28;20115;-81
2022/04/08 08:28:41;;;;;;;9.93;1.65;;;6.80;99.90;;;;;;5036282;28;20511;-81
2022/04/08 08:31:07;;;;;;;5.65;1.33;;;6.80;99.90;;;;;;5034925;28;20045;-81
2022/04/08 08:33:33;;;;;;;5.97;1.40;;;6.80;99.90;;;;;;5033787;28;20040;-80
2022/04/08 08:35:58;;;;;;;8.52;1.42;;;6.90;99.90;;;;;;5034288;28;20074;-81
2022/04/08 08:38:24;;;;;;;7.50;1.52;;;6.90;99.90;;;;;;5025989;28;20048;-81
2022/04/08 08:40:50;;;;;;;7.80;1.20;;;7.00;99.90;;;;;;5030395;28;20060;-78
2022/04/08 08:43:18;;;;;;;7.30;1.30;;;7.20;99.90;;;;;;5017759;28;20057;-79
2022/04/08 08:45:48;;;;;;;4.95;1.17;;;7.30;99.90;;;;;;5034415;28;20673;-79
2022/04/08 08:48:17;;;;;;;6.97;2.03;;;7.50;99.90;;;;;;5034739;28;20123;-79
2022/04/08 08:50:46;;;;;;;6.32;1.20;;;7.70;99.90;;;;;;5045499;28;20049;-79
2022/04/08 08:53:16;;;;;;;5.88;1.25;;;7.80;99.90;;;;;;5029251;28;20045;-78
2022/04/08 08:55:42;;;;;;;4.43;1.30;;;7.80;99.90;;;;;;5036233;28;20127;-79
2022/04/08 08:58:08;;;;;;;3.55;0.90;;;7.80;99.90;;;;;;5028409;28;20499;-78
2022/04/08 09:00:35;;;;;;;5.45;1.25;;;7.80;99.90;;;;;;5032556;28;20048;-80
2022/04/08 09:03:03;;;;;;;4.05;1.25;;;7.80;99.90;;;;;;5039147;28;20131;-81
2022/04/08 09:05:29;;;;;;;3.63;0.80;;;7.80;99.90;;;;;;5034262;28;20076;-79
2022/04/08 09:08:05;;;;;;;4.72;0.80;;;7.80;99.90;;;;;;5029628;28;20053;-79
2022/04/08 09:10:34;;;;;;;5.50;0.88;;;7.90;99.90;;;;;;5033588;28;20859;-81
2022/04/08 09:13:02;;;;;;;3.70;0.73;;;8.00;99.90;;;;;;5030684;28;20072;-84
2022/04/08 09:15:28;;;;;;;4.15;0.60;;;8.00;99.90;;;;;;5034235;28;20107;-82
2022/04/08 09:18:04;;;;;;;4.57;0.70;;;8.10;99.90;;;;;;5034493;28;20045;-81
2022/04/08 09:20:37;;;;;;;4.68;0.70;;;8.20;99.90;;;;;;5033805;28;20048;-81
2022/04/08 09:23:07;;;;;;;3.05;0.70;;;8.20;99.90;;;;;;5033940;28;20487;-81
2022/04/08 09:25:33;;;;;;;4.13;0.70;;;8.30;99.90;;;;;;5027057;28;20049;-81
2022/04/08 09:28:06;;;;;;;5.85;1.10;;;8.40;99.90;;;;;;5026628;28;20516;-81
2022/04/08 09:30:31;;;;;;;3.00;0.80;;;8.60;99.90;;;;;;5023360;28;20128;-82
2022/04/08 09:32:57;;;;;;;12.07;1.35;;;8.50;99.90;;;;;;5026131;28;20033;-83
2022/04/08 09:35:27;;;;;;;6.85;0.70;;;8.40;99.90;;;;;;5032296;28;20053;-82
2022/04/08 09:38:02;;;;;;;7.03;1.17;;;8.40;99.90;;;;;;5036740;28;20044;-82
2022/04/08 09:40:42;;;;;;;4.63;0.98;;;8.40;99.90;;;;;;5035176;28;20052;-79
2022/04/08 09:43:08;;;;;;;7.97;1.30;;;8.40;99.90;;;;;;5028290;28;20591;-75
2022/04/08 09:45:34;;;;;;;5.22;1.20;;;8.50;99.90;;;;;;5034351;28;20144;-78
2022/04/08 09:48:01;;;;;;;6.80;1.30;;;8.50;99.90;;;;;;5034663;28;20408;-84
2022/04/08 09:50:27;;;;;;;5.72;1.33;;;8.60;99.90;;;;;;5029903;28;20475;-76
2022/04/08 09:52:54;;;;;;;7.07;1.17;;;8.50;99.90;;;;;;5028885;28;20052;-76
2022/04/08 09:55:21;;;;;;;6.00;1.40;;;8.50;99.90;;;;;;5028592;28;20057;-76
2022/04/08 09:57:50;;;;;;;7.63;1.27;;;8.30;99.90;;;;;;5036010;28;20056;-76
2022/04/08 10:00:16;;;;;;;7.53;1.35;;;8.20;99.90;;;;;;5029706;28;20041;-76
2022/04/08 10:02:45;;;;;;;6.88;1.27;;;8.10;99.90;;;;;;5026233;28;20085;-76
2022/04/08 10:05:11;;;;;;;6.72;1.55;;;8.10;99.90;;;;;;5033851;28;20077;-76
2022/04/08 10:07:39;;;;;;;5.95;0.77;;;8.10;99.90;;;;;;5033739;28;20158;-74
2022/04/08 10:10:09;;;;;;;5.90;0.98;;;8.20;99.90;;;;;;5030542;28;20103;-74
2022/04/08 10:12:59;;;;;;;5.18;0.98;;;8.30;99.90;;;;;;5028205;28;20646;-74
2022/04/08 10:15:37;;;;;;;5.57;1.17;;;8.60;99.90;;;;;;5030963;28;20045;-74
2022/04/08 10:18:04;;;;;;;6.10;0.93;;;8.70;99.90;;;;;;5029670;28;20055;-74
2022/04/08 10:20:31;;;;;;;5.30;0.73;;;8.80;99.90;;;;;;5032101;28;20049;-74
2022/04/08 10:23:11;;;;;;;5.38;0.80;;;8.90;99.90;;;;;;5035585;28;20092;-74
2022/04/08 10:25:48;;;;;;;2.92;0.68;;;9.00;99.90;;;;;;5032577;28;20095;-74
2022/04/08 10:28:13;;;;;;;5.10;0.95;;;9.20;99.90;;;;;;5023989;28;20053;-76
2022/04/08 10:30:47;;;;;;;8.38;0.93;;;9.30;99.90;;;;;;5034886;28;20045;-76
2022/04/08 10:33:22;;;;;;;8.15;1.67;;;9.60;99.90;;;;;;5035060;28;20359;-76
2022/04/08 10:35:59;;;;;;;6.55;0.82;;;9.60;99.90;;;;;;5033984;28;20049;-76
2022/04/08 10:38:34;;;;;;;5.60;0.80;;;9.70;99.90;;;;;;5030832;28;20072;-77
2022/04/08 10:41:00;;;;;;;6.88;0.90;;;9.70;99.90;;;;;;5020540;28;20813;-77
2022/04/08 10:43:27;;;;;;;5.82;1.00;;;9.80;99.90;;;;;;5031811;28;20087;-76
2022/04/08 10:45:58;;;;;;;3.67;0.60;;;9.90;99.90;;;;;;5033765;28;20048;-77
2022/04/08 10:48:31;;;;;;;3.60;1.15;;;9.90;99.90;;;;;;5007554;28;20412;-77
2022/04/08 10:51:14;;;;;;;3.53;0.77;;;9.80;99.90;;;;;;5040696;28;20786;-78
2022/04/08 10:53:41;;;;;;;5.32;0.88;;;9.80;99.90;;;;;;5033734;28;20053;-77
2022/04/08 10:56:10;;;;;;;6.10;0.55;;;10.00;99.90;;;;;;5037335;28;20136;-79
2022/04/08 10:58:39;;;;;;;2.55;0.80;;;10.10;99.90;;;;;;5034998;28;20499;-76
2022/04/08 11:01:17;;;;;;;5.95;0.82;;;10.10;99.90;;;;;;5032292;28;20104;-77
2022/04/08 11:04:03;;;;;;;3.53;0.75;;;10.10;99.90;;;;;;5030586;28;20128;-76
2022/04/08 11:06:31;;;;;;;3.40;0.63;;;10.10;99.90;;;;;;5031798;28;20044;-76
2022/04/08 11:09:04;;;;;;;3.50;0.60;;;10.10;99.90;;;;;;5032523;28;20076;-76
2022/04/08 11:11:31;;;;;;;3.80;0.88;;;10.20;99.90;;;;;;5034420;28;21338;-74
2022/04/08 11:13:58;;;;;;;5.88;0.70;;;10.20;99.90;;;;;;5032075;28;20060;-76
2022/04/08 11:16:27;;;;;;;4.63;0.90;;;10.20;99.90;;;;;;5031782;28;20045;-76
2022/04/08 11:18:54;;;;;;;7.80;1.10;;;10.10;99.90;;;;;;5035097;28;20188;-77
2022/04/08 11:21:21;;;;;;;5.85;0.80;;;10.00;99.90;;;;;;5034432;28;20049;-77
2022/04/08 11:24:02;;;;;;;5.90;1.00;;;10.00;99.90;;;;;;5032208;28;20053;-76
2022/04/08 11:26:29;;;;;;;7.75;1.00;;;9.90;99.90;;;;;;5032575;28;20041;-76
2022/04/08 11:29:07;;;;;;;3.78;0.98;;;9.80;99.90;;;;;;5029054;28;20055;-76
2022/04/08 11:31:33;;;;;;;3.80;0.98;;;9.60;99.90;;;;;;5028039;28;20810;-76
2022/04/08 11:34:02;;;;;;;5.70;0.85;;;9.30;99.90;;;;;;5029499;28;20073;-76
2022/04/08 11:36:27;;;;;;;4.68;1.00;;;9.00;99.90;;;;;;5030773;28;20049;-76
2022/04/08 11:38:53;;;;;;;3.65;0.70;;;8.80;99.90;;;;;;5029714;28;20702;-76
2022/04/08 11:41:23;;;;;;;2.17;0.50;;;8.80;99.90;;;;;;5031169;28;20052;-76
2022/04/08 11:43:49;;;;;;;3.20;0.73;;;8.70;99.90;;;;;;5035277;28;20878;-76
2022/04/08 11:46:16;;;;;;;3.00;0.85;;;8.60;99.90;;;;;;5035298;28;20045;-77
2022/04/08 11:48:42;;;;;;;7.40;1.15;;;8.50;99.90;;;;;;5035054;28;20049;-77
2022/04/08 11:51:08;;;;;;;2.78;0.73;;;8.40;99.90;;;;;;5039661;28;20087;-77
2022/04/08 11:53:49;;;;;;;6.47;0.70;;;8.40;99.90;;;;;;5033020;28;20041;-77
2022/04/08 11:56:26;;;;;;;6.35;0.80;;;8.40;99.90;;;;;;5032517;28;20775;-77
2022/04/08 11:59:08;;;;;;;5.35;1.15;;;8.40;99.90;;;;;;5035047;28;20139;-77
2022/04/08 12:01:37;;;;;;;5.95;0.80;;;8.40;99.90;;;;;;5032429;28;20732;-76
2022/04/08 12:04:09;;;;;;;3.08;0.60;;;8.40;99.90;;;;;;5037214;28;20465;-77
2022/04/08 12:06:42;;;;;;;6.82;1.00;;;8.50;99.90;;;;;;5036120;28;20033;-76
2022/04/08 12:09:09;;;;;;;3.92;0.80;;;8.70;99.90;;;;;;5034443;28;20147;-77
2022/04/08 12:11:36;;;;;;;7.35;0.95;;;8.90;99.90;;;;;;5036793;28;20048;-76
2022/04/08 12:14:05;;;;;;;4.35;0.90;;;9.10;99.90;;;;;;5035467;28;20121;-76
2022/04/08 12:16:31;;;;;;;4.72;0.82;;;9.30;99.90;;;;;;5035665;28;20040;-76
2022/04/08 12:19:01;;;;;;;3.35;0.70;;;9.50;99.90;;;;;;5035777;28;20408;-76
2022/04/08 12:21:28;;;;;;;4.10;0.98;;;9.60;99.90;;;;;;5031769;28;20587;-76
2022/04/08 12:23:59;;;;;;;5.47;0.95;;;9.70;99.90;;;;;;5029076;28;20045;-76
2022/04/08 12:26:29;;;;;;;4.47;0.80;;;9.80;99.90;;;;;;5032056;28;20091;-76
2022/04/08 12:29:13;;;;;;;6.95;1.13;;;9.90;99.90;;;;;;5033928;28;20102;-76
2022/04/08 12:31:48;;;;;;;5.75;0.80;;;10.00;99.90;;;;;;5029193;28;20045;-77
2022/04/08 12:34:15;;;;;;;5.35;0.73;;;10.10;99.90;;;;;;5029638;28;20084;-77
2022/04/08 12:36:44;;;;;;;7.78;1.15;;;9.90;99.90;;;;;;5026374;28;20126;-76
2022/04/08 12:39:11;;;;;;;4.68;1.75;;;9.70;99.90;;;;;;5030717;28;20058;-76
2022/04/08 12:41:45;;;;;;;6.40;0.77;;;9.60;99.90;;;;;;5028827;28;20045;-77
2022/04/08 12:44:11;;;;;;;6.57;0.95;;;9.70;99.90;;;;;;5027571;28;20060;-76
2022/04/08 12:46:37;;;;;;;4.90;0.73;;;9.80;99.90;;;;;;5027963;28;20153;-77
2022/04/08 12:49:04;;;;;;;1.83;0.50;;;10.00;99.90;;;;;;5028734;28;20126;-77
2022/04/08 12:51:29;;;;;;;5.70;0.80;;;10.10;99.90;;;;;;5035805;28;20044;-77
2022/04/08 12:53:56;;;;;;;6.18;0.80;;;10.30;99.90;;;;;;5034242;28;20060;-77
2022/04/08 12:56:21;;;;;;;5.93;0.90;;;10.40;99.90;;;;;;5032023;28;20530;-76
2022/04/08 12:58:47;;;;;;;3.78;0.68;;;10.40;99.90;;;;;;5033683;28;20056;-77